Time;durP1;ratioP1;P1;durP2;ratioP2;P2;SDS_P1;SDS_P2;PMS_P1;PMS_P2;Temp;Humidity;BMP_temperature;BMP_pressure;BME280_temperature;BME280_humidity;BME280_pressure;Samples;Min_cycle;Max_cycle;Signal;HPM_P1;HPM_P2
2022/09/23 00:00:35;;;;;;;5.75;4.60;;;12.30;59.80;;;;;;5096140;28;20078;-68
2022/09/23 00:03:01;;;;;;;6.60;5.05;;;12.30;59.90;;;;;;5095675;28;20046;-68
2022/09/23 00:05:28;;;;;;;7.38;4.60;;;12.30;59.90;;;;;;5112618;28;20548;-68
2022/09/23 00:07:55;;;;;;;5.75;4.57;;;12.20;59.90;;;;;;5112899;28;20043;-68
2022/09/23 00:10:25;;;;;;;5.50;4.95;;;12.20;59.90;;;;;;5112907;28;20043;-68
2022/09/23 00:12:52;;;;;;;5.68;4.90;;;12.20;60.00;;;;;;5112632;28;20088;-67
2022/09/23 00:15:17;;;;;;;7.35;5.78;;;12.20;60.00;;;;;;5113035;28;20386;-68
2022/09/23 00:17:44;;;;;;;5.85;4.82;;;12.20;60.10;;;;;;5112202;28;20043;-68
2022/09/23 00:20:09;;;;;;;8.02;5.55;;;12.20;60.10;;;;;;5112437;28;20069;-67
2022/09/23 00:22:36;;;;;;;5.20;4.20;;;12.20;60.10;;;;;;5111666;28;20059;-68
2022/09/23 00:25:03;;;;;;;5.63;4.75;;;12.20;60.10;;;;;;5112407;28;20048;-68
2022/09/23 00:27:29;;;;;;;5.65;5.00;;;12.10;60.10;;;;;;5112146;28;20035;-68
2022/09/23 00:29:55;;;;;;;5.72;4.93;;;12.10;60.10;;;;;;5095660;28;20047;-67
2022/09/23 00:32:21;;;;;;;5.68;4.80;;;12.10;60.10;;;;;;5112074;28;20383;-67
2022/09/23 00:34:47;;;;;;;8.13;5.25;;;12.10;60.10;;;;;;5105704;28;20036;-67
2022/09/23 00:37:13;;;;;;;6.20;4.57;;;12.10;60.10;;;;;;5112312;28;20043;-68
2022/09/23 00:39:39;;;;;;;7.57;4.88;;;12.10;60.20;;;;;;5095532;28;20051;-68
2022/09/23 00:42:08;;;;;;;5.65;5.03;;;12.10;60.20;;;;;;5112113;28;20043;-67
2022/09/23 00:44:53;;;;;;;5.07;4.40;;;12.10;60.30;;;;;;5112135;28;20067;-68
2022/09/23 00:47:28;;;;;;;5.60;4.47;;;12.00;60.20;;;;;;5094449;28;20059;-68
2022/09/23 00:50:02;;;;;;;5.65;5.05;;;12.00;60.20;;;;;;5112195;28;20483;-68
2022/09/23 00:52:31;;;;;;;4.78;4.28;;;12.00;60.30;;;;;;5112084;28;20043;-68
2022/09/23 00:54:59;;;;;;;6.38;4.32;;;12.00;60.20;;;;;;5111834;28;20039;-68
2022/09/23 00:57:27;;;;;;;7.57;5.22;;;12.00;60.20;;;;;;5111731;28;20058;-68
2022/09/23 00:59:53;;;;;;;5.43;4.30;;;12.00;60.20;;;;;;5112165;28;20180;-68
2022/09/23 01:02:19;;;;;;;6.47;5.05;;;11.90;60.10;;;;;;5111611;28;20530;-68
2022/09/23 01:04:48;;;;;;;5.47;4.38;;;11.90;60.10;;;;;;5111871;28;20487;-67
2022/09/23 01:07:14;;;;;;;6.70;4.22;;;11.90;60.20;;;;;;5111664;28;20387;-68
2022/09/23 01:09:39;;;;;;;5.13;4.22;;;11.90;60.20;;;;;;5111968;28;20035;-68
2022/09/23 01:12:17;;;;;;;5.10;4.50;;;11.90;60.20;;;;;;5095142;28;20032;-67
2022/09/23 01:15:02;;;;;;;5.45;4.28;;;11.90;60.40;;;;;;5112243;28;20093;-68
2022/09/23 01:17:59;;;;;;;6.00;4.95;;;11.90;60.40;;;;;;5111752;28;20058;-67
2022/09/23 01:20:27;;;;;;;5.60;4.50;;;11.80;60.40;;;;;;5111691;28;20127;-67
2022/09/23 01:23:20;;;;;;;6.13;5.10;;;11.80;60.40;;;;;;5111462;28;20085;-67
2022/09/23 01:26:16;;;;;;;7.20;5.22;;;11.80;60.50;;;;;;5111567;28;20071;-67
2022/09/23 01:29:01;;;;;;;4.72;3.83;;;11.80;60.40;;;;;;5111666;28;20050;-67
2022/09/23 01:32:34;;;;;;;7.18;5.30;;;11.80;60.40;;;;;;5111868;28;20036;-67
2022/09/23 01:35:11;;;;;;;6.72;6.03;;;11.70;60.30;;;;;;5017625;28;20049;-67
2022/09/23 01:37:37;;;;;;;7.65;6.57;;;11.80;60.50;;;;;;5087912;28;20092;-68
2022/09/23 01:40:41;;;;;;;6.60;5.00;;;11.70;60.50;;;;;;5111418;28;20557;-67
2022/09/23 01:43:14;;;;;;;5.53;3.63;;;11.70;60.50;;;;;;5111031;28;20058;-67
2022/09/23 01:45:47;;;;;;;5.18;3.85;;;11.60;60.60;;;;;;5111933;28;20486;-67
2022/09/23 01:48:35;;;;;;;4.65;4.10;;;11.60;60.80;;;;;;5115440;28;20046;-67
2022/09/23 01:51:04;;;;;;;5.80;4.95;;;11.60;60.80;;;;;;5115540;28;20469;-67
2022/09/23 01:53:51;;;;;;;7.38;5.60;;;11.60;60.90;;;;;;5115174;28;20509;-67
2022/09/23 01:56:39;;;;;;;6.97;4.38;;;11.60;61.00;;;;;;5115044;28;20038;-67
2022/09/23 01:59:15;;;;;;;6.15;4.50;;;11.60;61.10;;;;;;5114881;28;20510;-67
2022/09/23 02:01:49;;;;;;;6.15;4.45;;;11.50;61.10;;;;;;5115493;28;20093;-67
2022/09/23 02:04:29;;;;;;;7.60;5.30;;;11.60;61.30;;;;;;5115335;28;20035;-68
2022/09/23 02:07:02;;;;;;;8.93;6.38;;;11.50;61.30;;;;;;5098080;28;20047;-67
2022/09/23 02:09:34;;;;;;;7.78;6.95;;;11.50;61.30;;;;;;5114784;28;20063;-67
2022/09/23 02:12:04;;;;;;;6.72;5.45;;;11.50;61.50;;;;;;5093510;28;20038;-67
2022/09/23 02:14:39;;;;;;;6.75;5.07;;;11.50;61.50;;;;;;5114453;27;20047;-67
2022/09/23 02:17:12;;;;;;;6.65;5.63;;;11.50;61.50;;;;;;5109929;28;20039;-68
2022/09/23 02:19:46;;;;;;;6.43;5.73;;;11.50;61.50;;;;;;5097754;28;20070;-67
2022/09/23 02:22:26;;;;;;;9.73;7.93;;;11.50;61.50;;;;;;5115117;28;20393;-68
2022/09/23 02:24:55;;;;;;;8.15;5.57;;;11.50;61.50;;;;;;5114629;28;20090;-67
2022/09/23 02:27:31;;;;;;;6.93;6.20;;;11.50;61.50;;;;;;5114463;28;20531;-67
2022/09/23 02:30:00;;;;;;;8.35;5.78;;;11.50;61.50;;;;;;5114218;28;20089;-67
2022/09/23 02:32:34;;;;;;;6.53;5.28;;;11.50;61.40;;;;;;5114761;28;20044;-67
2022/09/23 02:35:09;;;;;;;;;;;11.50;61.40;;;;;;5115098;28;20059;-67
2022/09/23 02:37:43;;;;;;;7.70;6.33;;;11.50;61.10;;;;;;5114645;28;20057;-67
2022/09/23 02:40:22;;;;;;;7.03;5.88;;;11.50;61.30;;;;;;5111233;28;20278;-67
2022/09/23 02:43:18;;;;;;;6.45;5.53;;;11.50;61.30;;;;;;5094535;28;20066;-67
2022/09/23 02:45:45;;;;;;;6.90;6.20;;;11.50;61.20;;;;;;5099013;28;20035;-67
2022/09/23 02:48:21;;;;;;;6.18;5.40;;;11.50;61.20;;;;;;5114379;28;20039;-67
2022/09/23 02:50:48;;;;;;;7.53;6.53;;;11.50;61.20;;;;;;5114465;28;20031;-68
2022/09/23 02:53:17;;;;;;;8.35;6.80;;;11.40;61.10;;;;;;5114004;28;20035;-68
2022/09/23 02:55:43;;;;;;;7.07;5.38;;;11.50;61.20;;;;;;5113683;28;20044;-67
2022/09/23 02:58:12;;;;;;;7.38;6.22;;;11.50;61.20;;;;;;5113019;28;20131;-68
2022/09/23 03:01:00;;;;;;;7.25;6.55;;;11.40;61.10;;;;;;5114260;28;20487;-67
2022/09/23 03:04:03;;;;;;;7.22;6.00;;;11.50;61.10;;;;;;5113668;28;20071;-67
2022/09/23 03:07:07;;;;;;;10.57;8.63;;;11.40;61.00;;;;;;5110219;28;20499;-67
2022/09/23 03:09:40;;;;;;;9.65;8.65;;;11.40;61.00;;;;;;5113634;28;20032;-67
2022/09/23 03:12:08;;;;;;;10.95;9.85;;;11.40;61.00;;;;;;5113850;28;20032;-67
2022/09/23 03:14:52;;;;;;;12.48;11.18;;;11.30;60.90;;;;;;5113476;28;20051;-67
2022/09/23 03:17:26;;;;;;;8.57;7.57;;;11.30;60.90;;;;;;5115069;28;20071;-67
2022/09/23 03:20:02;;;;;;;9.50;8.52;;;11.30;61.00;;;;;;5114207;28;20440;-67
2022/09/23 03:22:34;;;;;;;7.78;7.03;;;11.20;61.10;;;;;;5113254;28;20083;-67
2022/09/23 03:25:05;;;;;;;8.63;7.63;;;11.20;61.20;;;;;;5113455;28;20055;-67
2022/09/23 03:27:34;;;;;;;11.52;7.07;;;11.20;61.30;;;;;;5113260;28;20543;-67
2022/09/23 03:30:00;;;;;;;10.15;7.78;;;11.10;61.30;;;;;;5113662;28;20083;-67
2022/09/23 03:32:27;;;;;;;10.38;9.25;;;11.10;61.30;;;;;;5113523;28;20097;-67
2022/09/23 03:34:56;;;;;;;6.90;6.20;;;11.00;61.30;;;;;;5113355;28;20044;-67
2022/09/23 03:37:25;;;;;;;10.00;8.07;;;11.10;61.40;;;;;;5113080;28;20047;-67
2022/09/23 03:40:18;;;;;;;7.93;6.82;;;11.10;61.50;;;;;;5113670;28;20439;-67
2022/09/23 03:42:47;;;;;;;7.28;6.57;;;11.00;61.50;;;;;;5113283;28;20131;-67
2022/09/23 03:45:18;;;;;;;8.73;7.13;;;11.00;61.40;;;;;;5112922;28;20119;-67
2022/09/23 03:47:44;;;;;;;9.38;8.48;;;11.00;61.50;;;;;;5112917;28;20539;-67
2022/09/23 03:50:16;;;;;;;12.70;11.50;;;11.00;61.50;;;;;;5113218;28;20483;-67
2022/09/23 03:52:42;;;;;;;14.48;13.02;;;11.00;61.50;;;;;;5113205;28;20402;-67
2022/09/23 03:55:09;;;;;;;11.45;10.25;;;11.00;61.50;;;;;;5112145;28;20043;-67
2022/09/23 03:57:35;;;;;;;10.70;9.52;;;11.00;61.60;;;;;;5112920;28;20075;-68
2022/09/23 04:00:01;;;;;;;9.95;7.60;;;11.00;61.60;;;;;;5112892;28;20044;-68
2022/09/23 04:02:27;;;;;;;9.70;8.18;;;10.90;61.60;;;;;;5096056;28;20206;-68
2022/09/23 04:04:53;;;;;;;9.45;7.30;;;10.90;61.70;;;;;;5112591;28;20122;-68
2022/09/23 04:07:19;;;;;;;8.43;7.43;;;10.90;61.80;;;;;;5113001;28;20107;-68
2022/09/23 04:09:44;;;;;;;10.70;7.68;;;10.90;61.90;;;;;;5112735;28;20115;-67
2022/09/23 04:12:13;;;;;;;9.48;7.10;;;10.90;61.90;;;;;;5112895;28;20035;-67
2022/09/23 04:14:39;;;;;;;7.97;7.05;;;10.90;62.00;;;;;;5112620;28;20380;-67
2022/09/23 04:17:05;;;;;;;8.70;7.85;;;10.90;62.00;;;;;;5112397;28;20092;-67
2022/09/23 04:19:31;;;;;;;10.70;8.30;;;10.90;62.00;;;;;;5112450;28;20497;-67
2022/09/23 04:21:56;;;;;;;8.95;7.13;;;10.80;62.00;;;;;;5112667;28;20040;-68
2022/09/23 04:24:22;;;;;;;10.27;8.20;;;10.90;62.00;;;;;;5111990;28;20585;-68
2022/09/23 04:26:53;;;;;;;9.43;8.18;;;10.90;62.00;;;;;;5111916;28;20107;-67
2022/09/23 04:29:19;;;;;;;15.13;12.77;;;10.90;62.10;;;;;;5112210;28;20063;-67
2022/09/23 04:31:45;;;;;;;13.18;11.77;;;10.90;62.10;;;;;;5112333;28;20127;-67
2022/09/23 04:34:11;;;;;;;13.15;11.25;;;10.80;61.90;;;;;;5111270;28;20479;-67
2022/09/23 04:36:37;;;;;;;9.10;7.90;;;10.80;62.00;;;;;;5095171;28;20067;-67
2022/09/23 04:39:04;;;;;;;14.00;12.60;;;10.80;62.00;;;;;;5111929;28;20082;-67
2022/09/23 04:41:30;;;;;;;14.25;12.75;;;10.80;62.10;;;;;;5112114;28;20039;-67
2022/09/23 04:43:58;;;;;;;15.00;13.55;;;10.80;62.20;;;;;;5111899;28;20043;-67
2022/09/23 04:46:24;;;;;;;13.60;12.25;;;10.70;62.20;;;;;;5111610;28;20454;-67
2022/09/23 04:48:50;;;;;;;15.07;13.50;;;10.70;62.30;;;;;;5095032;28;20067;-67
2022/09/23 04:51:18;;;;;;;15.73;14.10;;;10.70;62.50;;;;;;5111973;28;20106;-67
2022/09/23 04:53:46;;;;;;;15.40;13.80;;;10.60;62.70;;;;;;5094991;28;20078;-68
2022/09/23 04:56:14;;;;;;;16.17;14.45;;;10.50;62.70;;;;;;5111905;28;20205;-67
2022/09/23 04:58:40;;;;;;;14.35;13.00;;;10.50;62.80;;;;;;5111503;28;20044;-67
2022/09/23 05:01:12;;;;;;;16.50;14.65;;;10.40;62.90;;;;;;5111183;28;20449;-67
2022/09/23 05:03:38;;;;;;;15.63;13.98;;;10.40;63.10;;;;;;5111493;28;20042;-68
2022/09/23 05:06:04;;;;;;;16.27;14.57;;;10.30;63.20;;;;;;5094489;28;20051;-67
2022/09/23 05:08:30;;;;;;;16.02;14.32;;;10.30;63.30;;;;;;5094327;28;20075;-68
2022/09/23 05:10:57;;;;;;;18.52;15.05;;;10.20;63.50;;;;;;5094697;28;20071;-70
2022/09/23 05:13:23;;;;;;;17.45;15.57;;;10.20;63.60;;;;;;5111566;28;20041;-70
2022/09/23 05:15:48;;;;;;;17.33;15.52;;;10.10;63.80;;;;;;5120826;28;20112;-70
2022/09/23 05:18:14;;;;;;;15.88;14.35;;;10.00;63.90;;;;;;5129008;28;20058;-70
2022/09/23 05:20:40;;;;;;;18.35;16.42;;;9.90;64.20;;;;;;5112236;28;20122;-70
2022/09/23 05:23:05;;;;;;;16.88;15.15;;;9.90;64.50;;;;;;5115853;28;20056;-70
2022/09/23 05:25:31;;;;;;;17.58;15.80;;;9.80;64.70;;;;;;5111278;28;20036;-70
2022/09/23 05:27:57;;;;;;;16.20;14.50;;;9.80;64.80;;;;;;5109320;28;20066;-70
2022/09/23 05:30:22;;;;;;;17.17;15.27;;;9.70;64.90;;;;;;5115809;28;20035;-70
2022/09/23 05:32:48;;;;;;;18.75;16.10;;;9.70;65.00;;;;;;5098849;28;20131;-70
2022/09/23 05:35:14;;;;;;;17.45;15.45;;;9.60;65.20;;;;;;5115906;28;20044;-70
2022/09/23 05:37:40;;;;;;;17.55;15.77;;;9.50;65.50;;;;;;5115574;28;20100;-70
2022/09/23 05:40:06;;;;;;;17.02;15.23;;;9.50;65.70;;;;;;5115467;28;20051;-70
2022/09/23 05:42:32;;;;;;;21.13;17.30;;;9.50;65.90;;;;;;5115697;28;20035;-70
2022/09/23 05:44:57;;;;;;;18.25;16.00;;;9.40;66.00;;;;;;5115249;28;20046;-70
2022/09/23 05:47:23;;;;;;;19.27;17.30;;;9.40;66.20;;;;;;5115555;28;20400;-70
2022/09/23 05:49:49;;;;;;;18.05;16.25;;;9.30;66.50;;;;;;5116016;28;20093;-70
2022/09/23 05:52:16;;;;;;;17.58;15.77;;;9.30;66.70;;;;;;5115001;28;20039;-70
2022/09/23 05:54:41;;;;;;;17.50;15.60;;;9.30;66.90;;;;;;5115546;28;20039;-70
2022/09/23 05:57:07;;;;;;;17.80;15.90;;;9.30;67.10;;;;;;5115350;28;20044;-70
2022/09/23 05:59:33;;;;;;;18.33;16.42;;;9.20;67.30;;;;;;5115125;28;20036;-70
2022/09/23 06:02:00;;;;;;;17.50;15.70;;;9.30;67.60;;;;;;5097909;28;20036;-70
2022/09/23 06:04:25;;;;;;;21.35;16.35;;;9.30;67.80;;;;;;5115161;28;20040;-70
2022/09/23 06:06:51;;;;;;;19.40;17.15;;;9.30;67.90;;;;;;5114837;28;20092;-70
2022/09/23 06:09:17;;;;;;;18.05;15.43;;;9.30;68.10;;;;;;5113953;28;20429;-70
2022/09/23 06:11:43;;;;;;;17.15;15.43;;;9.30;68.20;;;;;;5097708;28;20071;-70
2022/09/23 06:14:12;;;;;;;17.30;15.50;;;9.30;68.50;;;;;;5098077;28;20028;-70
2022/09/23 06:16:38;;;;;;;15.57;13.98;;;9.20;68.50;;;;;;5115202;28;20043;-70
2022/09/23 06:19:04;;;;;;;18.73;16.50;;;9.40;68.70;;;;;;5114559;28;20045;-70
2022/09/23 06:21:31;;;;;;;17.60;15.77;;;9.40;68.90;;;;;;5081527;28;20107;-71
2022/09/23 06:23:59;;;;;;;17.15;15.07;;;9.40;68.90;;;;;;5114603;28;20055;-70
2022/09/23 06:26:25;;;;;;;16.98;15.20;;;9.50;69.10;;;;;;5114520;28;20122;-70
2022/09/23 06:28:50;;;;;;;16.95;15.15;;;9.50;69.10;;;;;;5114470;28;20157;-70
2022/09/23 06:31:16;;;;;;;17.08;15.27;;;9.50;69.20;;;;;;5097615;28;20071;-70
2022/09/23 06:33:43;;;;;;;17.83;14.98;;;9.60;69.20;;;;;;5114528;28;20503;-70
2022/09/23 06:36:10;;;;;;;17.10;15.18;;;9.60;69.20;;;;;;5097318;28;20039;-70
2022/09/23 06:38:43;;;;;;;15.63;14.05;;;9.60;69.20;;;;;;5097687;28;20043;-70
2022/09/23 06:41:09;;;;;;;14.88;13.38;;;9.70;69.30;;;;;;5114903;28;20395;-70
2022/09/23 06:43:35;;;;;;;17.20;15.50;;;9.80;69.30;;;;;;5114003;28;20047;-70
2022/09/23 06:46:02;;;;;;;15.18;13.25;;;9.80;69.30;;;;;;5100647;28;20365;-70
2022/09/23 06:48:29;;;;;;;16.90;14.35;;;9.90;69.20;;;;;;5114497;28;20492;-71
2022/09/23 06:51:01;;;;;;;16.80;14.98;;;9.90;69.30;;;;;;5114244;28;20050;-71
2022/09/23 06:53:30;;;;;;;15.73;14.23;;;10.00;69.30;;;;;;5113784;28;20101;-70
2022/09/23 06:56:15;;;;;;;17.52;14.77;;;10.00;69.20;;;;;;5123951;27;20047;-70
2022/09/23 06:58:41;;;;;;;15.90;14.07;;;10.00;69.20;;;;;;5096482;27;20039;-71
2022/09/23 07:01:10;;;;;;;16.00;14.13;;;10.10;69.10;;;;;;5119565;27;20039;-71
2022/09/23 07:03:37;;;;;;;16.67;14.95;;;10.20;69.20;;;;;;5117012;27;20035;-71
2022/09/23 07:06:04;;;;;;;15.13;13.50;;;10.20;69.10;;;;;;5122002;27;20044;-71
2022/09/23 07:08:32;;;;;;;16.02;13.30;;;10.20;69.00;;;;;;5093863;28;20044;-71
2022/09/23 07:11:00;;;;;;;14.90;13.05;;;10.30;69.00;;;;;;5124422;27;20424;-70
2022/09/23 07:13:27;;;;;;;15.20;13.60;;;10.30;68.90;;;;;;5097089;28;20039;-70
2022/09/23 07:15:57;;;;;;;15.05;13.52;;;10.40;69.00;;;;;;5113463;28;20052;-70
2022/09/23 07:18:24;;;;;;;16.48;14.77;;;10.50;68.90;;;;;;5113860;28;20031;-70
2022/09/23 07:20:52;;;;;;;15.18;13.43;;;10.50;68.80;;;;;;5114162;28;20123;-70
2022/09/23 07:23:18;;;;;;;14.40;13.00;;;10.50;68.80;;;;;;5113570;28;20063;-70
2022/09/23 07:25:49;;;;;;;14.77;12.15;;;10.60;68.70;;;;;;5113283;28;20044;-70
2022/09/23 07:28:15;;;;;;;14.13;12.43;;;10.60;68.60;;;;;;5113885;28;20040;-70
2022/09/23 07:30:42;;;;;;;14.57;13.02;;;10.70;68.60;;;;;;5113625;28;20036;-70
2022/09/23 07:33:08;;;;;;;15.73;13.77;;;10.80;68.70;;;;;;5113473;28;20051;-70
2022/09/23 07:35:37;;;;;;;15.02;13.38;;;10.80;68.60;;;;;;5096391;28;20110;-70
2022/09/23 07:38:03;;;;;;;14.95;13.30;;;10.80;68.60;;;;;;5113359;28;20075;-70
2022/09/23 07:40:28;;;;;;;15.80;13.02;;;10.90;68.60;;;;;;5079812;28;20104;-70
2022/09/23 07:42:54;;;;;;;14.15;12.75;;;11.00;68.60;;;;;;5096601;28;20049;-70
2022/09/23 07:45:21;;;;;;;14.43;12.23;;;11.00;68.50;;;;;;5112718;28;20039;-70
2022/09/23 07:47:47;;;;;;;12.82;11.43;;;11.10;68.40;;;;;;5113338;28;20375;-70
2022/09/23 07:50:13;;;;;;;16.05;12.68;;;11.20;68.40;;;;;;5113273;28;20047;-70
2022/09/23 07:52:39;;;;;;;14.02;12.52;;;11.10;68.40;;;;;;5095869;28;20035;-70
2022/09/23 07:55:05;;;;;;;13.38;11.98;;;11.30;68.30;;;;;;5113179;28;20039;-70
2022/09/23 07:57:31;;;;;;;14.27;12.60;;;11.30;68.20;;;;;;5079540;28;20046;-71
2022/09/23 07:59:59;;;;;;;14.90;13.00;;;11.40;68.10;;;;;;5113021;28;20452;-70
2022/09/23 08:02:24;;;;;;;14.18;12.32;;;11.50;68.10;;;;;;5113151;28;20386;-70
2022/09/23 08:04:50;;;;;;;13.27;12.00;;;11.60;68.20;;;;;;5130317;27;20127;-71
2022/09/23 08:07:16;;;;;;;12.73;11.38;;;11.60;68.30;;;;;;5079018;28;20069;-71
2022/09/23 08:09:42;;;;;;;12.38;11.07;;;11.70;68.30;;;;;;5128425;27;20043;-71
2022/09/23 08:12:10;;;;;;;14.20;12.18;;;11.80;68.20;;;;;;5115947;27;20040;-70
2022/09/23 08:14:37;;;;;;;15.10;12.75;;;11.90;68.20;;;;;;5101881;28;20478;-71
2022/09/23 08:17:05;;;;;;;12.55;11.20;;;11.90;68.10;;;;;;5112887;28;20032;-71
2022/09/23 08:19:31;;;;;;;12.07;10.80;;;12.00;68.00;;;;;;5112808;28;20176;-71
2022/09/23 08:21:57;;;;;;;13.88;11.85;;;12.20;68.00;;;;;;5128309;27;20077;-71
2022/09/23 08:24:23;;;;;;;12.00;10.50;;;12.20;67.70;;;;;;5129371;27;20050;-71
2022/09/23 08:26:52;;;;;;;12.90;11.23;;;12.30;67.40;;;;;;5112505;28;20043;-71
2022/09/23 08:29:20;;;;;;;12.77;11.40;;;12.40;67.30;;;;;;5112386;28;20040;-71
2022/09/23 08:31:48;;;;;;;12.88;11.05;;;12.50;67.10;;;;;;5112643;28;20375;-71
2022/09/23 08:34:15;;;;;;;11.95;10.75;;;12.50;67.00;;;;;;5092414;28;20393;-71
2022/09/23 08:36:41;;;;;;;12.05;10.85;;;12.70;67.10;;;;;;5092079;28;20044;-71
2022/09/23 08:39:11;;;;;;;12.50;11.00;;;12.80;66.90;;;;;;5092077;28;20123;-71
2022/09/23 08:41:52;;;;;;;13.43;11.50;;;12.90;66.70;;;;;;5109272;28;20380;-71
2022/09/23 08:44:30;;;;;;;11.50;10.15;;;13.00;66.50;;;;;;5110335;28;20069;-71
2022/09/23 08:47:10;;;;;;;12.60;10.52;;;13.10;66.10;;;;;;5132825;27;20107;-71
2022/09/23 08:49:55;;;;;;;14.55;11.23;;;13.20;65.70;;;;;;5121779;27;20493;-71
2022/09/23 08:52:29;;;;;;;11.40;10.20;;;13.30;65.70;;;;;;5112694;28;20387;-71
2022/09/23 08:54:55;;;;;;;11.93;10.73;;;13.50;65.50;;;;;;5111837;28;20547;-71
2022/09/23 08:57:44;;;;;;;11.02;9.63;;;13.60;65.10;;;;;;5095188;28;20043;-71
2022/09/23 09:00:34;;;;;;;14.07;10.63;;;13.70;64.50;;;;;;5098998;28;20514;-72
2022/09/23 09:03:00;;;;;;;11.70;9.75;;;13.80;64.20;;;;;;5109992;28;20043;-71
2022/09/23 09:05:27;;;;;;;12.63;9.43;;;13.90;64.00;;;;;;5112054;28;20040;-71
2022/09/23 09:07:57;;;;;;;12.80;10.15;;;14.00;63.70;;;;;;5111957;28;20047;-71
2022/09/23 09:10:40;;;;;;;11.23;10.13;;;14.10;63.60;;;;;;5112099;28;20539;-71
2022/09/23 09:13:19;;;;;;;12.25;10.20;;;14.30;63.40;;;;;;5111849;28;20047;-71
2022/09/23 09:16:15;;;;;;;11.10;10.00;;;14.40;63.10;;;;;;5111973;28;20466;-71
2022/09/23 09:18:52;;;;;;;10.73;9.52;;;14.50;62.40;;;;;;5108199;28;20073;-71
2022/09/23 09:21:31;;;;;;;11.15;9.63;;;14.70;62.30;;;;;;5108363;28;20391;-71
2022/09/23 09:23:58;;;;;;;10.10;8.90;;;14.70;62.00;;;;;;5119758;28;20055;-71
2022/09/23 09:26:29;;;;;;;12.32;9.25;;;14.80;61.70;;;;;;5111741;28;20058;-71
2022/09/23 09:29:01;;;;;;;10.70;9.50;;;14.90;61.60;;;;;;5111794;28;20040;-71
2022/09/23 09:31:34;;;;;;;10.65;9.23;;;15.00;61.90;;;;;;5111487;28;20027;-72
2022/09/23 09:34:42;;;;;;;12.73;10.02;;;15.10;62.00;;;;;;5111907;28;20044;-71
2022/09/23 09:37:22;;;;;;;10.93;9.00;;;15.20;61.70;;;;;;5108506;28;20043;-71
2022/09/23 09:39:48;;;;;;;10.10;8.73;;;15.30;61.60;;;;;;5114502;28;20046;-71
2022/09/23 09:42:25;;;;;;;9.73;8.73;;;15.30;61.30;;;;;;5104524;28;20035;-71
2022/09/23 09:45:06;;;;;;;10.73;9.43;;;15.50;61.30;;;;;;5111518;28;20413;-71
2022/09/23 09:48:01;;;;;;;10.57;8.25;;;15.50;61.10;;;;;;5110433;28;20039;-71
2022/09/23 09:50:48;;;;;;;9.05;8.15;;;15.60;60.60;;;;;;5111103;28;20033;-71
2022/09/23 09:53:34;;;;;;;12.00;8.93;;;15.70;60.40;;;;;;5111564;28;20036;-71
2022/09/23 09:56:08;;;;;;;8.52;7.55;;;15.70;60.30;;;;;;5111377;28;20043;-71
2022/09/23 09:58:53;;;;;;;;;;;15.80;60.10;;;;;;5129069;28;20055;-71
2022/09/23 10:01:32;;;;;;;11.93;9.02;;;15.80;60.30;;;;;;5111441;28;20374;-71
2022/09/23 10:04:00;;;;;;;11.27;9.23;;;15.90;60.30;;;;;;5110223;28;20035;-71
2022/09/23 10:06:32;;;;;;;11.10;8.38;;;15.90;59.60;;;;;;5111679;28;20100;-71
2022/09/23 10:09:23;;;;;;;11.15;8.65;;;16.00;59.50;;;;;;5115296;28;20402;-71
2022/09/23 10:12:02;;;;;;;10.05;8.63;;;16.00;59.40;;;;;;5113865;28;20364;-71
2022/09/23 10:14:29;;;;;;;10.57;8.25;;;16.10;59.40;;;;;;5115303;28;20153;-71
2022/09/23 10:17:06;;;;;;;9.45;7.70;;;16.10;59.50;;;;;;5115025;28;20048;-71
2022/09/23 10:19:36;;;;;;;10.98;8.45;;;16.20;59.20;;;;;;5115295;28;20403;-71
2022/09/23 10:22:07;;;;;;;13.30;8.90;;;16.30;59.40;;;;;;5115658;27;20040;-71
2022/09/23 10:24:37;;;;;;;11.27;8.52;;;16.30;59.60;;;;;;5114885;28;20052;-71
2022/09/23 10:27:07;;;;;;;12.43;8.13;;;16.40;59.40;;;;;;5097552;28;20063;-71
2022/09/23 10:29:39;;;;;;;10.93;9.05;;;16.40;59.40;;;;;;5114845;28;20044;-72
2022/09/23 10:32:29;;;;;;;10.82;9.02;;;16.50;59.60;;;;;;5114416;28;20044;-69
2022/09/23 10:35:13;;;;;;;10.30;8.50;;;16.60;59.70;;;;;;5114903;28;20364;-69
2022/09/23 10:37:51;;;;;;;12.43;10.95;;;16.60;59.80;;;;;;5114557;28;20099;-70
2022/09/23 10:47:09;;;;;;;11.85;8.80;;;16.70;60.10;;;;;;5110253;28;20222;-69
2022/09/23 10:49:54;;;;;;;10.27;8.95;;;16.80;60.10;;;;;;5112410;28;20039;-71
2022/09/23 10:52:46;;;;;;;10.63;9.48;;;16.80;60.10;;;;;;5114151;28;20040;-71
2022/09/23 10:55:26;;;;;;;10.73;9.63;;;16.90;60.00;;;;;;5114088;28;20047;-69
2022/09/23 10:58:03;;;;;;;10.15;8.98;;;16.90;60.10;;;;;;5114174;28;20044;-70
2022/09/23 11:00:35;;;;;;;10.68;8.82;;;16.90;60.40;;;;;;5114441;28;20573;-70
2022/09/23 11:03:01;;;;;;;10.90;9.40;;;16.90;60.60;;;;;;5114350;28;20075;-70
2022/09/23 11:05:31;;;;;;;11.32;9.25;;;16.90;60.80;;;;;;5114268;28;20090;-69
2022/09/23 11:08:02;;;;;;;11.88;8.48;;;17.00;60.80;;;;;;5113858;28;20104;-70
2022/09/23 11:10:54;;;;;;;8.80;7.88;;;17.00;60.70;;;;;;5114248;28;20042;-69
2022/09/23 11:13:48;;;;;;;10.07;8.80;;;17.10;60.10;;;;;;5093801;28;20055;-71
2022/09/23 11:16:43;;;;;;;13.88;9.63;;;17.10;60.30;;;;;;5098699;28;20031;-72
2022/09/23 11:19:21;;;;;;;11.07;9.95;;;17.10;60.40;;;;;;5113032;28;20047;-71
2022/09/23 11:22:14;;;;;;;11.38;8.80;;;17.10;59.90;;;;;;5113699;28;20065;-69
2022/09/23 11:24:59;;;;;;;12.35;10.10;;;17.10;59.60;;;;;;5110670;28;20051;-69
2022/09/23 11:27:42;;;;;;;11.73;9.88;;;17.10;59.60;;;;;;5113279;28;20491;-70
2022/09/23 11:30:18;;;;;;;12.60;9.27;;;17.10;59.50;;;;;;5113744;28;20039;-71
2022/09/23 11:32:47;;;;;;;11.30;8.77;;;17.10;59.30;;;;;;5113371;28;20082;-69
2022/09/23 11:35:36;;;;;;;10.35;8.85;;;17.10;59.30;;;;;;5113387;28;20036;-71
2022/09/23 11:38:13;;;;;;;11.50;8.63;;;17.10;59.50;;;;;;5113481;28;20084;-72
2022/09/23 11:40:41;;;;;;;9.95;8.95;;;17.10;59.80;;;;;;5112398;28;20039;-71
2022/09/23 11:43:22;;;;;;;10.70;8.80;;;17.10;59.80;;;;;;5113521;28;20372;-71
2022/09/23 11:46:06;;;;;;;9.70;7.72;;;17.20;59.90;;;;;;5113125;28;20070;-72
2022/09/23 11:48:43;;;;;;;11.85;9.18;;;17.20;59.80;;;;;;5113310;28;20040;-72
2022/09/23 11:51:17;;;;;;;11.63;9.27;;;17.10;59.70;;;;;;5113222;28;20073;-72
2022/09/23 11:53:48;;;;;;;;;;;17.20;59.50;;;;;;5113533;28;20054;-72
2022/09/23 11:56:14;;;;;;;10.30;8.20;;;17.10;59.60;;;;;;5112798;28;19923;-71
2022/09/23 11:59:02;;;;;;;11.38;8.57;;;17.10;59.90;;;;;;5112896;28;20039;-71
2022/09/23 12:01:45;;;;;;;10.20;8.65;;;17.10;59.50;;;;;;5112929;28;20126;-71
2022/09/23 12:04:25;;;;;;;9.73;8.73;;;17.20;59.70;;;;;;5106842;28;20078;-71
2022/09/23 12:07:00;;;;;;;10.00;7.78;;;17.10;60.20;;;;;;5112706;28;20043;-72
2022/09/23 12:09:41;;;;;;;10.32;8.10;;;17.20;60.30;;;;;;5112481;28;20046;-71
2022/09/23 12:12:24;;;;;;;10.52;8.75;;;17.20;59.90;;;;;;5112372;28;20042;-71
2022/09/23 12:15:33;;;;;;;10.82;8.38;;;17.20;60.00;;;;;;5112683;28;20081;-71
2022/09/23 12:18:25;;;;;;;10.25;8.65;;;17.20;59.70;;;;;;5071848;28;20048;-72
2022/09/23 12:21:22;;;;;;;8.93;7.00;;;17.20;59.70;;;;;;5112723;28;20111;-72
2022/09/23 12:24:14;;;;;;;9.00;7.82;;;17.20;59.40;;;;;;5112027;28;20071;-72
2022/09/23 12:26:41;;;;;;;9.90;8.57;;;17.20;59.70;;;;;;5112018;28;20043;-71
2022/09/23 12:29:12;;;;;;;10.85;7.85;;;17.20;59.80;;;;;;5112346;28;20089;-72
2022/09/23 12:31:40;;;;;;;9.57;8.25;;;17.20;59.90;;;;;;5112744;28;20070;-72
2022/09/23 12:34:29;;;;;;;10.60;9.57;;;17.20;59.90;;;;;;5112326;28;20084;-72
2022/09/23 12:37:01;;;;;;;10.27;8.73;;;17.20;60.00;;;;;;5112290;28;20031;-71
2022/09/23 12:39:32;;;;;;;8.93;8.00;;;17.20;60.20;;;;;;5112176;28;20399;-72
2022/09/23 12:42:04;;;;;;;9.68;8.50;;;17.20;60.40;;;;;;5112370;28;20035;-72
2022/09/23 12:44:42;;;;;;;10.38;8.60;;;17.20;60.60;;;;;;5111865;28;20483;-72
2022/09/23 12:47:14;;;;;;;10.93;8.13;;;17.10;60.20;;;;;;5111666;28;20100;-71
2022/09/23 12:49:41;;;;;;;11.95;8.65;;;17.10;60.20;;;;;;5111953;28;20038;-71
2022/09/23 12:52:15;;;;;;;11.35;8.73;;;17.10;60.30;;;;;;5095163;28;20047;-71
2022/09/23 12:54:46;;;;;;;9.32;8.30;;;17.10;60.30;;;;;;5111905;28;20126;-71
2022/09/23 12:57:30;;;;;;;13.25;9.52;;;17.10;60.40;;;;;;5096152;28;20107;-70
2022/09/23 13:00:13;;;;;;;11.32;8.57;;;17.10;60.90;;;;;;5111995;28;20478;-70
2022/09/23 13:08:39;;;;;;;8.90;7.72;;;17.10;60.80;;;;;;5111683;28;20501;-69
2022/09/23 13:11:20;;;;;;;10.32;8.38;;;17.10;60.80;;;;;;5111999;28;20063;-69
2022/09/23 13:13:48;;;;;;;11.60;9.10;;;17.10;60.70;;;;;;5111861;28;20536;-69
2022/09/23 13:16:24;;;;;;;11.85;8.73;;;17.10;60.80;;;;;;5112072;28;20536;-69
2022/09/23 13:18:57;;;;;;;12.23;8.95;;;17.20;60.70;;;;;;5111731;28;20173;-69